Time;durP1;ratioP1;P1;durP2;ratioP2;P2;SDS_P1;SDS_P2;PMS_P1;PMS_P2;Temp;Humidity;BMP_temperature;BMP_pressure;BME280_temperature;BME280_humidity;BME280_pressure;Samples;Min_cycle;Max_cycle;Signal;HPM_P1;HPM_P2
2021/09/26 00:02:19;;;;;;;;;;;;;;;19.82;72.78;101124.09;5017610;28;1428;-64
2021/09/26 00:04:44;;;;;;;;;;;;;;;19.82;73.02;101121.38;5017602;28;776;-64
2021/09/26 00:07:09;;;;;;;;;;;;;;;19.82;73.19;101124.09;5017415;28;1111;-65
2021/09/26 00:09:34;;;;;;;;;;;;;;;19.81;72.65;101117.84;5017430;28;910;-65
2021/09/26 00:11:59;;;;;;;;;;;;;;;19.81;73.44;101114.28;5017319;28;1061;-64
2021/09/26 00:14:24;;;;;;;;;;;;;;;19.81;73.44;101109.72;5017415;28;1009;-64
2021/09/26 00:16:50;;;;;;;;;;;;;;;19.80;72.97;101115.28;5016107;28;1212;-63
2021/09/26 00:19:15;;;;;;;;;;;;;;;19.79;72.65;101111.72;5017661;28;1966;-63
2021/09/26 00:21:40;;;;;;;;;;;;;;;19.80;73.50;101115.28;5017354;28;954;-63
2021/09/26 00:24:05;;;;;;;;;;;;;;;19.80;72.95;101109.88;5017204;28;861;-64
2021/09/26 00:26:30;;;;;;;;;;;;;;;19.79;73.46;101110.88;5017207;28;1001;-63
2021/09/26 00:28:55;;;;;;;;;;;;;;;19.79;72.81;101113.56;5017471;28;1588;-65
2021/09/26 00:31:20;;;;;;;;;;;;;;;19.78;72.88;101112.72;5037039;28;1658;-64
2021/09/26 00:33:45;;;;;;;;;;;;;;;19.77;72.88;101111.88;5035567;28;2438;-65
2021/09/26 00:36:10;;;;;;;;;;;;;;;19.76;73.18;101118.28;5036710;28;1021;-66
2021/09/26 00:38:35;;;;;;;;;;;;;;;19.76;72.74;101123.69;5036571;28;1893;-65
2021/09/26 00:41:00;;;;;;;;;;;;;;;19.76;73.25;101118.28;5036533;28;1071;-66
2021/09/26 00:43:25;;;;;;;;;;;;;;;19.76;73.02;101121.00;5036997;28;921;-65
2021/09/26 00:45:51;;;;;;;;;;;;;;;19.76;72.64;101118.28;5036143;28;934;-66
2021/09/26 00:48:16;;;;;;;;;;;;;;;19.76;72.68;101120.13;5036933;28;1001;-65
2021/09/26 00:50:41;;;;;;;;;;;;;;;19.75;72.99;101116.56;5036555;28;1001;-65
2021/09/26 00:53:06;;;;;;;;;;;;;;;19.74;73.02;101112.16;5036420;28;894;-66
2021/09/26 00:55:31;;;;;;;;;;;;;;;19.75;72.73;101115.72;5036361;28;1076;-65
2021/09/26 00:57:56;;;;;;;;;;;;;;;19.74;72.47;101105.91;5036459;28;1060;-65
2021/09/26 01:00:21;;;;;;;;;;;;;;;19.73;72.36;101106.91;5021681;28;1956;-64
2021/09/26 01:02:46;;;;;;;;;;;;;;;19.73;72.69;101112.31;5016662;28;1712;-66
2021/09/26 01:05:11;;;;;;;;;;;;;;;19.73;72.11;101104.22;5029318;28;1568;-65
2021/09/26 01:07:36;;;;;;;;;;;;;;;19.74;72.65;101106.75;5036489;28;1037;-64
2021/09/26 01:10:04;;;;;;;;;;;;;;;19.72;72.45;101103.34;5035973;28;839;-65
2021/09/26 01:12:29;;;;;;;;;;;;;;;19.72;72.24;101110.63;5036171;28;950;-65
2021/09/26 01:14:54;;;;;;;;;;;;;;;19.71;72.40;101107.06;5036222;28;810;-64
2021/09/26 01:17:19;;;;;;;;;;;;;;;19.70;72.62;101109.94;5036181;28;1234;-65
2021/09/26 01:19:44;;;;;;;;;;;;;;;19.71;73.17;101108.91;5036075;28;1914;-64
2021/09/26 01:22:09;;;;;;;;;;;;;;;19.71;72.69;101109.75;5035782;28;1057;-65
2021/09/26 01:24:34;;;;;;;;;;;;;;;19.69;72.21;101100.97;5036133;28;962;-65
2021/09/26 01:27:00;;;;;;;;;;;;;;;19.69;71.81;101094.72;5035808;28;890;-65
2021/09/26 01:29:28;;;;;;;;;;;;;;;19.68;72.52;101090.31;5029443;28;1448;-63
2021/09/26 01:31:53;;;;;;;;;;;;;;;19.68;71.64;101093.88;5016324;28;1058;-64
2021/09/26 01:34:18;;;;;;;;;;;;;;;19.67;71.73;101092.16;5014547;28;1001;-64
2021/09/26 01:36:43;;;;;;;;;;;;;;;19.68;72.93;101090.31;5015929;28;989;-67
2021/09/26 01:39:09;;;;;;;;;;;;;;;19.67;72.02;101094.88;5015722;28;1894;-68
2021/09/26 01:41:34;;;;;;;;;;;;;;;19.66;72.29;101090.47;5015604;28;846;-68
2021/09/26 01:43:59;;;;;;;;;;;;;;;19.66;72.75;101086.91;5016239;28;953;-68
2021/09/26 01:46:24;;;;;;;;;;;;;;;19.66;72.47;101090.47;5015562;28;1239;-66
2021/09/26 01:48:49;;;;;;;;;;;;;;;19.65;71.49;101086.06;5016033;28;997;-66
2021/09/26 01:51:14;;;;;;;;;;;;;;;19.65;72.34;101087.91;5015712;28;911;-66
2021/09/26 01:53:39;;;;;;;;;;;;;;;19.64;71.76;101087.06;5015681;28;961;-66
2021/09/26 01:56:05;;;;;;;;;;;;;;;19.63;71.95;101079.94;5014712;28;855;-66
2021/09/26 01:58:30;;;;;;;;;;;;;;;19.62;72.22;101072.00;5015482;28;1886;-66
2021/09/26 02:00:55;;;;;;;;;;;;;;;19.63;72.05;101073.69;5033273;28;1611;-66
2021/09/26 02:03:20;;;;;;;;;;;;;;;19.62;72.61;101072.84;5035374;28;823;-66
2021/09/26 02:05:45;;;;;;;;;;;;;;;19.61;71.48;101068.44;5035352;28;997;-66
2021/09/26 02:08:10;;;;;;;;;;;;;;;19.61;71.95;101065.72;5035043;28;1021;-65
2021/09/26 02:10:35;;;;;;;;;;;;;;;19.60;71.96;101064.03;5034895;28;874;-67
2021/09/26 02:13:00;;;;;;;;;;;;;;;19.61;71.97;101068.44;5034938;28;996;-66
2021/09/26 02:15:25;;;;;;;;;;;;;;;19.60;71.53;101068.59;5034897;28;1035;-66
2021/09/26 02:17:50;;;;;;;;;;;;;;;19.60;71.51;101061.31;5034958;28;838;-64
2021/09/26 02:20:16;;;;;;;;;;;;;;;19.59;71.42;101056.91;5034928;28;1914;-63
2021/09/26 02:22:41;;;;;;;;;;;;;;;19.59;71.79;101053.38;5034877;28;823;-64
2021/09/26 02:25:07;;;;;;;;;;;;;;;19.57;72.33;101053.50;5033618;28;1370;-64
2021/09/26 02:27:32;;;;;;;;;;;;;;;19.58;71.54;101052.50;5030351;28;1329;-64
2021/09/26 02:29:57;;;;;;;;;;;;;;;19.57;71.10;101050.81;5015113;28;1699;-64
2021/09/26 02:32:22;;;;;;;;;;;;;;;19.56;71.29;101051.81;5015358;28;1698;-64
2021/09/26 02:34:47;;;;;;;;;;;;;;;19.56;71.56;101056.38;5015015;28;799;-64
2021/09/26 02:37:12;;;;;;;;;;;;;;;19.56;71.43;101057.22;5014940;28;993;-64
2021/09/26 02:39:37;;;;;;;;;;;;;;;19.56;71.66;101051.81;5014921;28;1898;-64
2021/09/26 02:42:02;;;;;;;;;;;;;;;19.54;71.69;101056.50;5014782;28;855;-65
2021/09/26 02:44:27;;;;;;;;;;;;;;;19.54;72.02;101059.22;5015321;28;768;-64
2021/09/26 02:46:52;;;;;;;;;;;;;;;19.54;71.88;101061.06;5014909;28;819;-64
2021/09/26 02:49:17;;;;;;;;;;;;;;;19.54;71.92;101064.63;5014987;28;811;-64
2021/09/26 02:51:42;;;;;;;;;;;;;;;19.53;71.45;101057.50;5014774;28;839;-64
2021/09/26 02:54:08;;;;;;;;;;;;;;;19.54;71.40;101052.97;5014872;28;807;-64
2021/09/26 02:56:33;;;;;;;;;;;;;;;19.53;71.57;101056.66;5014730;28;998;-63
2021/09/26 02:59:02;;;;;;;;;;;;;;;19.51;71.29;101062.25;5029868;28;1955;-63
2021/09/26 03:01:28;;;;;;;;;;;;;;;19.53;71.43;101064.78;5034532;28;1374;-67
2021/09/26 03:03:53;;;;;;;;;;;;;;;19.51;70.74;101058.69;5034578;28;1013;-66
2021/09/26 03:06:18;;;;;;;;;;;;;;;19.50;70.86;101060.56;5034628;28;949;-66
2021/09/26 03:08:43;;;;;;;;;;;;;;;19.49;71.36;101066.94;5037019;28;811;-66
2021/09/26 03:11:08;;;;;;;;;;;;;;;19.49;70.63;101061.53;5038270;28;775;-66
2021/09/26 03:13:33;;;;;;;;;;;;;;;19.49;71.11;101064.22;5038262;28;862;-65
2021/09/26 03:15:58;;;;;;;;;;;;;;;19.48;71.01;101067.94;5038353;28;1048;-64
2021/09/26 03:18:23;;;;;;;;;;;;;;;19.48;70.64;101077.88;5038480;28;899;-65
2021/09/26 03:20:48;;;;;;;;;;;;;;;19.48;70.72;101061.66;5037998;28;1894;-64
2021/09/26 03:23:13;;;;;;;;;;;;;;;19.47;71.60;101073.47;5038098;28;946;-65
2021/09/26 03:25:38;;;;;;;;;;;;;;;19.45;71.34;101062.81;5038207;28;779;-64
2021/09/26 03:28:03;;;;;;;;;;;;;;;19.45;70.42;101065.53;5027234;28;1644;-64
2021/09/26 03:30:29;;;;;;;;;;;;;;;19.45;71.01;101064.66;5018201;28;1555;-66
2021/09/26 03:32:54;;;;;;;;;;;;;;;19.44;71.55;101058.41;5018112;28;990;-66
2021/09/26 03:35:19;;;;;;;;;;;;;;;19.42;70.32;101052.31;5018053;28;914;-66
2021/09/26 03:37:44;;;;;;;;;;;;;;;19.42;70.55;101044.19;5018050;28;1366;-64
2021/09/26 03:40:09;;;;;;;;;;;;;;;19.42;71.46;101041.50;5018011;28;1902;-65
2021/09/26 03:42:34;;;;;;;;;;;;;;;19.42;70.50;101044.19;5018011;28;795;-65
2021/09/26 03:45:00;;;;;;;;;;;;;;;19.41;70.79;101034.38;5018108;28;780;-66
2021/09/26 03:47:25;;;;;;;;;;;;;;;19.40;71.04;101035.38;5016518;28;895;-65
2021/09/26 03:49:50;;;;;;;;;;;;;;;19.39;70.69;101036.38;5017960;28;887;-64
2021/09/26 03:52:16;;;;;;;;;;;;;;;19.38;70.76;101023.88;5018006;28;946;-64
2021/09/26 03:54:41;;;;;;;;;;;;;;;19.38;70.64;101024.72;5017788;28;862;-64
2021/09/26 03:57:06;;;;;;;;;;;;;;;19.39;70.66;101022.88;5019048;28;1920;-65
2021/09/26 03:59:31;;;;;;;;;;;;;;;19.38;70.39;101018.47;5037415;28;1971;-64
2021/09/26 04:01:56;;;;;;;;;;;;;;;19.38;70.75;101023.88;5037164;28;1294;-64
2021/09/26 04:04:21;;;;;;;;;;;;;;;19.36;70.50;101013.22;5037608;28;993;-64
2021/09/26 04:06:46;;;;;;;;;;;;;;;19.37;69.99;101009.50;5037458;28;1060;-64
2021/09/26 04:09:11;;;;;;;;;;;;;;;19.35;70.37;101014.22;5037326;28;831;-64
2021/09/26 04:11:36;;;;;;;;;;;;;;;19.35;70.25;101006.09;5037127;28;997;-64
2021/09/26 04:14:01;;;;;;;;;;;;;;;19.35;70.34;101010.66;5037181;28;998;-64
2021/09/26 04:16:27;;;;;;;;;;;;;;;19.34;70.67;101011.69;5037115;28;850;-64
2021/09/26 04:18:52;;;;;;;;;;;;;;;19.34;70.18;101015.25;5036595;28;1967;-64
2021/09/26 04:21:17;;;;;;;;;;;;;;;19.33;70.38;101010.00;5037123;28;969;-64
2021/09/26 04:23:42;;;;;;;;;;;;;;;19.33;70.50;101018.09;5037030;28;870;-63
2021/09/26 04:26:07;;;;;;;;;;;;;;;19.32;70.98;101013.69;5037040;28;970;-64
2021/09/26 04:28:32;;;;;;;;;;;;;;;19.32;70.19;101011.00;5020113;28;1631;-63
2021/09/26 04:30:57;;;;;;;;;;;;;;;19.32;70.52;101011.00;5016971;28;947;-63
2021/09/26 04:33:22;;;;;;;;;;;;;;;19.31;70.52;101010.13;5017415;28;1014;-63
2021/09/26 04:35:47;;;;;;;;;;;;;;;19.32;70.19;101019.09;5017300;28;1357;-64
2021/09/26 04:38:12;;;;;;;;;;;;;;;19.30;70.11;101019.25;5017040;28;1615;-63
2021/09/26 04:40:40;;;;;;;;;;;;;;;19.31;70.61;101020.09;5016959;28;1914;-65
2021/09/26 04:43:05;;;;;;;;;;;;;;;19.30;70.05;101013.00;5016705;28;740;-65
2021/09/26 04:45:30;;;;;;;;;;;;;;;19.32;70.89;101022.66;5017271;28;953;-66
2021/09/26 04:47:55;;;;;;;;;;;;;;;19.32;70.77;101022.66;5016749;28;886;-66
2021/09/26 04:50:20;;;;;;;;;;;;;;;19.32;70.59;101021.81;5023968;28;1755;-65
2021/09/26 04:52:45;;;;;;;;;;;;;;;19.32;70.43;101027.19;5028395;28;1620;-66
2021/09/26 04:55:10;;;;;;;;;;;;;;;19.31;70.64;101020.94;5036422;28;1009;-63
2021/09/26 04:57:35;;;;;;;;;;;;;;;19.32;70.59;101016.41;5036233;28;1837;-66
2021/09/26 05:00:00;;;;;;;;;;;;;;;19.30;70.59;101018.41;5035561;28;1918;-67
2021/09/26 05:02:25;;;;;;;;;;;;;;;19.29;70.47;101017.53;5016907;28;974;-66
2021/09/26 05:04:51;;;;;;;;;;;;;;;19.30;70.29;101015.69;5015600;28;899;-64
2021/09/26 05:07:16;;;;;;;;;;;;;;;19.29;71.12;101020.25;5017074;28;894;-65
2021/09/26 05:09:41;;;;;;;;;;;;;;;19.29;71.01;101024.81;5022777;28;1737;-65
2021/09/26 05:12:06;;;;;;;;;;;;;;;19.29;71.12;101032.91;5026453;28;1240;-66
2021/09/26 05:14:31;;;;;;;;;;;;;;;19.28;71.38;101036.59;5028815;28;1291;-66
2021/09/26 05:16:56;;;;;;;;;;;;;;;19.27;71.02;101030.34;5031855;28;1491;-65
2021/09/26 05:19:21;;;;;;;;;;;;;;;19.29;70.91;101035.59;5034652;28;1910;-66
2021/09/26 05:21:46;;;;;;;;;;;;;;;19.28;70.65;101042.00;5035941;28;867;-66
2021/09/26 05:24:11;;;;;;;;;;;;;;;19.26;71.01;101034.06;5036449;28;994;-66
2021/09/26 05:26:36;;;;;;;;;;;;;;;19.26;71.37;101031.34;5033740;28;1831;-66
2021/09/26 05:29:02;;;;;;;;;;;;;;;19.26;70.66;101034.06;5026118;28;1486;-66
2021/09/26 05:31:27;;;;;;;;;;;;;;;19.27;70.58;101029.50;5024604;28;1672;-66
2021/09/26 05:33:52;;;;;;;;;;;;;;;19.25;71.03;101035.06;5033945;28;1653;-67
2021/09/26 05:36:17;;;;;;;;;;;;;;;19.26;70.40;101028.66;5020493;28;1737;-66
2021/09/26 05:38:42;;;;;;;;;;;;;;;19.27;70.55;101024.09;5024190;28;1949;-66
2021/09/26 05:41:07;;;;;;;;;;;;;;;19.27;70.53;101029.50;5016212;28;1057;-66
2021/09/26 05:43:32;;;;;;;;;;;;;;;19.27;70.98;101037.59;5016003;28;1798;-66
2021/09/26 05:45:57;;;;;;;;;;;;;;;19.27;70.80;101037.59;5022677;28;1819;-66
2021/09/26 05:48:22;;;;;;;;;;;;;;;19.27;71.37;101049.25;5041905;28;1590;-66
2021/09/26 05:50:47;;;;;;;;;;;;;;;19.27;71.70;101041.16;5035501;28;1674;-65
2021/09/26 05:53:12;;;;;;;;;;;;;;;19.27;70.63;101043.88;5020151;28;1737;-66
2021/09/26 05:55:38;;;;;;;;;;;;;;;19.26;71.58;101039.47;5015732;28;1160;-66
2021/09/26 05:58:03;;;;;;;;;;;;;;;19.26;71.38;101030.50;5016339;28;803;-66
2021/09/26 06:00:28;;;;;;;;;;;;;;;19.26;71.27;101030.50;5015945;28;1968;-66
2021/09/26 06:02:53;;;;;;;;;;;;;;;19.25;70.91;101026.94;5026575;28;2697;-65
2021/09/26 06:05:18;;;;;;;;;;;;;;;19.26;71.25;101027.81;5019443;28;1403;-66
2021/09/26 06:07:43;;;;;;;;;;;;;;;19.26;70.76;101025.09;5035005;28;1755;-65
2021/09/26 06:10:08;;;;;;;;;;;;;;;19.25;72.27;101020.69;5034921;28;1841;-66
2021/09/26 06:12:33;;;;;;;;;;;;;;;19.25;71.94;101026.09;5033534;28;1579;-65
2021/09/26 06:14:59;;;;;;;;;;;;;;;19.26;71.50;101030.50;5034908;28;1782;-66
2021/09/26 06:17:24;;;;;;;;;;;;;;;19.25;72.31;101036.91;5034113;28;3022;-65
2021/09/26 06:19:52;;;;;;;;;;;;;;;19.25;71.73;101042.31;5034025;28;2022;-65
2021/09/26 06:22:17;;;;;;;;;;;;;;;19.25;71.79;101036.91;5024185;28;1592;-65
2021/09/26 06:24:44;;;;;;;;;;;;;;;19.26;71.31;101035.91;5034986;28;2004;-65
2021/09/26 06:27:09;;;;;;;;;;;;;;;19.24;71.97;101036.06;5033717;28;1134;-65
2021/09/26 06:29:34;;;;;;;;;;;;;;;19.25;71.16;101039.59;5030345;28;1616;-67
2021/09/26 06:31:59;;;;;;;;;;;;;;;19.26;71.69;101035.91;5025262;28;2010;-65
2021/09/26 06:34:24;;;;;;;;;;;;;;;19.25;71.88;101039.59;5035028;28;2022;-65
2021/09/26 06:36:49;;;;;;;;;;;;;;;19.24;71.05;101035.19;5033994;28;1930;-65
2021/09/26 06:39:14;;;;;;;;;;;;;;;19.25;71.56;101048.56;5035117;28;1964;-65
2021/09/26 06:41:39;;;;;;;;;;;;;;;19.26;71.51;101049.41;5035378;28;2075;-66
2021/09/26 06:44:05;;;;;;;;;;;;;;;19.25;70.78;101042.31;5034325;28;2144;-65
2021/09/26 06:46:30;;;;;;;;;;;;;;;19.25;70.79;101042.31;5035161;28;2012;-65
2021/09/26 06:48:55;;;;;;;;;;;;;;;19.24;70.66;101037.91;5034933;28;2187;-66
2021/09/26 06:51:20;;;;;;;;;;;;;;;19.25;71.50;101043.16;5034793;28;2029;-65
2021/09/26 06:53:45;;;;;;;;;;;;;;;19.24;71.08;101035.19;5034772;28;2068;-65
2021/09/26 06:56:10;;;;;;;;;;;;;;;19.24;70.96;101044.16;5034871;28;2172;-66
2021/09/26 06:58:35;;;;;;;;;;;;;;;19.23;71.45;101045.16;5033417;28;2114;-65
2021/09/26 07:01:00;;;;;;;;;;;;;;;19.24;70.38;101041.47;5034565;28;2119;-65
2021/09/26 07:03:25;;;;;;;;;;;;;;;19.24;70.46;101046.84;5034866;28;1996;-65
2021/09/26 07:05:50;;;;;;;;;;;;;;;19.25;70.48;101061.22;5034649;28;2018;-65
2021/09/26 07:08:16;;;;;;;;;;;;;;;19.23;71.25;101060.53;5034161;28;2030;-65
2021/09/26 07:10:41;;;;;;;;;;;;;;;19.23;71.14;101066.78;5033410;28;2112;-66
2021/09/26 07:13:06;;;;;;;;;;;;;;;19.23;70.27;101071.31;5033452;28;2067;-65
2021/09/26 07:15:31;;;;;;;;;;;;;;;19.22;70.85;101065.06;5034664;28;1825;-65
2021/09/26 07:17:57;;;;;;;;;;;;;;;19.23;71.02;101071.31;5034317;28;1606;-65
2021/09/26 07:20:23;;;;;;;;;;;;;;;19.22;71.23;101075.03;5033742;28;1915;-66
2021/09/26 07:22:48;;;;;;;;;;;;;;;19.22;71.02;101081.28;5029921;28;1579;-66
2021/09/26 07:25:13;;;;;;;;;;;;;;;19.21;70.85;101076.88;5034060;28;2699;-65
2021/09/26 07:27:38;;;;;;;;;;;;;;;19.22;71.08;101085.84;5033563;28;1735;-65
2021/09/26 07:30:03;;;;;;;;;;;;;;;19.22;71.06;101085.84;5034551;28;1815;-65
2021/09/26 07:32:29;;;;;;;;;;;;;;;19.23;70.31;101082.13;5034416;28;1762;-66
2021/09/26 07:34:54;;;;;;;;;;;;;;;19.22;71.11;101077.72;5033405;28;2489;-66
2021/09/26 07:37:20;;;;;;;;;;;;;;;19.23;70.90;101082.13;5033168;28;2202;-67
2021/09/26 07:39:45;;;;;;;;;;;;;;;19.25;71.05;101080.13;5034309;28;1894;-67
2021/09/26 07:42:10;;;;;;;;;;;;;;;19.32;73.19;101082.09;5027829;28;1680;-66
2021/09/26 07:44:35;;;;;;;;;;;;;;;19.42;76.25;101072.06;5025289;28;1639;-64
2021/09/26 07:47:00;;;;;;;;;;;;;;;19.46;75.33;101074.47;5031889;28;1579;-64
2021/09/26 07:49:25;;;;;;;;;;;;;;;19.45;72.80;101076.34;5033611;28;1717;-64
2021/09/26 07:51:50;;;;;;;;;;;;;;;19.46;74.32;101072.63;5031917;28;1708;-64
2021/09/26 07:54:16;;;;;;;;;;;;;;;19.46;74.06;101067.22;5015150;28;1796;-64
2021/09/26 07:56:41;;;;;;;;;;;;;;;19.46;72.92;101064.53;5018575;28;944;-63
2021/09/26 07:59:06;;;;;;;;;;;;;;;19.44;72.87;101061.13;5018014;28;1954;-63
2021/09/26 08:01:32;;;;;;;;;;;;;;;19.42;72.26;101065.81;5018203;28;1271;-63
2021/09/26 08:03:57;;;;;;;;;;;;;;;19.41;72.19;101077.63;5018386;28;839;-63
2021/09/26 08:06:22;;;;;;;;;;;;;;;19.40;72.55;101074.06;5019411;28;1607;-63
2021/09/26 08:08:47;;;;;;;;;;;;;;;19.40;72.29;101078.63;5026497;28;1599;-62
2021/09/26 08:11:12;;;;;;;;;;;;;;;19.41;71.87;101080.34;5025738;28;1557;-63
2021/09/26 08:13:37;;;;;;;;;;;;;;;19.41;72.44;101091.16;5033605;28;1624;-62
2021/09/26 08:16:02;;;;;;;;;;;;;;;19.39;72.58;101094.00;5037742;28;1057;-62
2021/09/26 08:18:27;;;;;;;;;;;;;;;19.38;71.92;101099.53;5037525;28;913;-63
2021/09/26 08:20:52;;;;;;;;;;;;;;;19.39;72.10;101103.94;5037518;28;1957;-63
2021/09/26 08:23:17;;;;;;;;;;;;;;;19.39;72.37;101114.75;5037889;28;1084;-63
2021/09/26 08:25:43;;;;;;;;;;;;;;;19.39;71.87;101114.75;5030673;28;1541;-63
2021/09/26 08:28:08;;;;;;;;;;;;;;;19.39;72.35;101109.34;5017833;28;1077;-63
2021/09/26 08:30:33;;;;;;;;;;;;;;;19.40;71.87;101111.06;5017761;28;1576;-62
2021/09/26 08:32:58;;;;;;;;;;;;;;;19.43;71.66;101118.88;5028969;28;1635;-63
2021/09/26 08:35:23;;;;;;;;;;;;;;;19.43;71.80;101116.19;5037222;28;865;-62
2021/09/26 08:37:48;;;;;;;;;;;;;;;19.44;72.29;101107.06;5032155;28;1646;-62
2021/09/26 08:40:13;;;;;;;;;;;;;;;19.45;72.46;101111.47;5030125;28;1898;-62
2021/09/26 08:42:39;;;;;;;;;;;;;;;19.46;72.23;101110.47;5036648;28;1594;-63
2021/09/26 08:45:05;;;;;;;;;;;;;;;19.48;72.05;101113.88;5037079;28;855;-62
2021/09/26 08:47:33;;;;;;;;;;;;;;;19.52;73.02;101115.31;5033874;28;1610;-63
2021/09/26 08:50:00;;;;;;;;;;;;;;;19.55;71.75;101119.53;5027347;28;1589;-62
2021/09/26 08:52:25;;;;;;;;;;;;;;;19.57;71.58;101113.00;5017514;28;800;-63
2021/09/26 08:54:50;;;;;;;;;;;;;;;19.58;72.95;101119.25;5017493;28;950;-63
2021/09/26 08:57:15;;;;;;;;;;;;;;;19.59;71.40;101121.81;5016658;28;923;-63
2021/09/26 08:59:40;;;;;;;;;;;;;;;19.59;71.94;101118.25;5017008;28;1910;-63
2021/09/26 09:02:05;;;;;;;;;;;;;;;19.60;72.62;101123.50;5022595;28;1566;-62
2021/09/26 09:04:30;;;;;;;;;;;;;;;19.61;72.16;101114.41;5036755;28;1049;-63
2021/09/26 09:06:55;;;;;;;;;;;;;;;19.61;72.49;101106.28;5036218;28;894;-62
2021/09/26 09:09:21;;;;;;;;;;;;;;;19.64;72.02;101110.53;5036805;28;1990;-63
2021/09/26 09:11:46;;;;;;;;;;;;;;;19.65;72.55;101106.84;5029112;28;1683;-63
2021/09/26 09:14:11;;;;;;;;;;;;;;;19.66;72.10;101105.84;5027367;28;1634;-63
2021/09/26 09:16:36;;;;;;;;;;;;;;;19.67;72.04;101115.66;5026750;28;1437;-62
2021/09/26 09:19:02;;;;;;;;;;;;;;;19.67;72.89;101112.94;5025922;28;1914;-62
2021/09/26 09:21:28;;;;;;;;;;;;;;;19.66;72.59;101111.25;5023182;28;1438;-62
2021/09/26 09:23:53;;;;;;;;;;;;;;;19.66;72.73;101112.09;5016478;28;1583;-63
2021/09/26 09:26:18;;;;;;;;;;;;;;;19.67;72.42;101112.94;5034016;28;1496;-62
2021/09/26 09:28:43;;;;;;;;;;;;;;;19.68;73.16;101112.81;5036042;28;1598;-62
2021/09/26 09:31:08;;;;;;;;;;;;;;;19.67;72.48;101111.09;5036123;28;890;-62
2021/09/26 09:33:33;;;;;;;;;;;;;;;19.66;72.71;101112.09;5035974;28;1209;-63
2021/09/26 09:35:58;;;;;;;;;;;;;;;19.67;72.60;101118.34;5035898;28;1064;-62
2021/09/26 09:38:23;;;;;;;;;;;;;;;19.65;72.72;101120.34;5034465;28;1204;-62
2021/09/26 09:40:48;;;;;;;;;;;;;;;19.65;72.55;101123.06;5034064;28;1901;-62
2021/09/26 09:43:13;;;;;;;;;;;;;;;19.66;72.08;101125.63;5035169;28;776;-63
2021/09/26 09:45:38;;;;;;;;;;;;;;;19.66;72.61;101125.63;5026101;28;1742;-62
2021/09/26 09:48:04;;;;;;;;;;;;;;;19.68;72.01;101125.47;5015601;28;875;-62
2021/09/26 09:50:29;;;;;;;;;;;;;;;19.67;72.33;101135.44;5031191;28;1694;-63
2021/09/26 09:52:54;;;;;;;;;;;;;;;19.68;71.92;101131.72;5035090;28;1040;-62
2021/09/26 09:55:19;;;;;;;;;;;;;;;19.67;71.46;101135.44;5035534;28;784;-62
2021/09/26 09:57:44;;;;;;;;;;;;;;;19.67;72.00;101137.28;5034861;28;1578;-63
2021/09/26 10:00:09;;;;;;;;;;;;;;;19.66;72.44;101131.03;5034478;28;1902;-63
2021/09/26 10:02:34;;;;;;;;;;;;;;;19.67;71.81;101135.44;5035370;28;899;-63
2021/09/26 10:04:59;;;;;;;;;;;;;;;19.66;71.82;101139.13;5035261;28;812;-62
2021/09/26 10:07:26;;;;;;;;;;;;;;;19.67;71.35;101121.91;5035150;28;1002;-63
2021/09/26 10:09:51;;;;;;;;;;;;;;;19.68;71.87;101142.53;5035234;28;784;-63
2021/09/26 10:12:16;;;;;;;;;;;;;;;19.70;71.73;101129.72;5034913;28;792;-63
2021/09/26 10:14:41;;;;;;;;;;;;;;;19.74;71.92;101130.25;5032431;28;1424;-63
2021/09/26 10:17:08;;;;;;;;;;;;;;;19.74;71.26;101127.53;5014603;28;994;-62
2021/09/26 10:19:34;;;;;;;;;;;;;;;19.74;71.89;101131.09;5015482;28;1977;-63
2021/09/26 10:22:00;;;;;;;;;;;;;;;19.75;71.67;101137.34;5015151;28;771;-63
2021/09/26 10:24:25;;;;;;;;;;;;;;;19.75;71.47;101146.31;5015211;28;772;-62
2021/09/26 10:26:50;;;;;;;;;;;;;;;19.77;72.40;101133.50;5015084;28;1121;-62
2021/09/26 10:29:15;;;;;;;;;;;;;;;19.80;71.41;101142.31;5014840;28;1159;-63
2021/09/26 10:31:40;;;;;;;;;;;;;;;19.79;71.88;101138.75;5013827;28;1208;-63
2021/09/26 10:34:05;;;;;;;;;;;;;;;19.77;71.84;101130.81;5014959;28;835;-63
2021/09/26 10:36:30;;;;;;;;;;;;;;;19.79;71.36;101137.91;5015396;28;1018;-64
2021/09/26 10:38:55;;;;;;;;;;;;;;;19.80;71.46;101140.47;5014992;28;1886;-63
2021/09/26 10:41:20;;;;;;;;;;;;;;;19.82;70.99;101134.91;5014883;28;882;-63
2021/09/26 10:43:46;;;;;;;;;;;;;;;19.84;72.06;101132.91;5015014;28;772;-62
2021/09/26 10:46:11;;;;;;;;;;;;;;;19.85;71.60;101140.88;5030327;28;1594;-63
2021/09/26 10:48:36;;;;;;;;;;;;;;;19.88;71.78;101131.59;5034682;28;765;-63
2021/09/26 10:51:01;;;;;;;;;;;;;;;19.90;71.19;101134.97;5034383;28;1691;-63
2021/09/26 10:53:26;;;;;;;;;;;;;;;19.91;71.21;101133.97;5034721;28;1005;-63
2021/09/26 10:55:51;;;;;;;;;;;;;;;19.92;71.43;101132.97;5034514;28;970;-63
2021/09/26 10:58:16;;;;;;;;;;;;;;;19.90;71.24;101135.84;5034419;28;1066;-63
2021/09/26 11:00:41;;;;;;;;;;;;;;;19.92;71.90;101139.25;5033985;28;1961;-63
2021/09/26 11:03:06;;;;;;;;;;;;;;;19.93;71.91;101140.09;5034291;28;753;-63
2021/09/26 11:05:31;;;;;;;;;;;;;;;19.94;71.57;101139.09;5034353;28;989;-63
2021/09/26 11:07:56;;;;;;;;;;;;;;;19.95;71.54;101140.78;5034577;28;950;-63
2021/09/26 11:10:22;;;;;;;;;;;;;;;19.96;72.30;101131.69;5034635;28;1002;-63
2021/09/26 11:12:48;;;;;;;;;;;;;;;19.98;71.32;101130.53;5034270;28;973;-63
2021/09/26 11:15:13;;;;;;;;;;;;;;;20.01;71.35;101132.94;5026877;28;1711;-63
2021/09/26 11:17:38;;;;;;;;;;;;;;;20.04;71.26;101140.75;5014734;28;1734;-63
2021/09/26 11:20:03;;;;;;;;;;;;;;;20.09;71.89;101140.25;5014847;28;1926;-62
2021/09/26 11:22:28;;;;;;;;;;;;;;;20.12;71.29;101148.06;5013244;28;1298;-63
2021/09/26 11:24:54;;;;;;;;;;;;;;;20.13;71.52;101135.41;5014622;28;819;-63
2021/09/26 11:27:19;;;;;;;;;;;;;;;20.14;71.84;101143.38;5013375;28;1854;-63
2021/09/26 11:29:44;;;;;;;;;;;;;;;20.15;71.54;101150.47;5016536;28;879;-63
2021/09/26 11:32:10;;;;;;;;;;;;;;;20.15;71.75;101142.34;5028131;28;1530;-63
2021/09/26 11:34:35;;;;;;;;;;;;;;;20.16;70.89;101149.47;5023747;28;1720;-62
2021/09/26 11:37:00;;;;;;;;;;;;;;;20.19;71.69;101145.63;5018825;28;862;-62
2021/09/26 11:39:25;;;;;;;;;;;;;;;20.19;71.11;101143.75;5018706;28;1914;-63
2021/09/26 11:41:51;;;;;;;;;;;;;;;20.29;71.60;101135.53;5018070;28;815;-62
2021/09/26 11:44:16;;;;;;;;;;;;;;;20.48;72.18;101148.09;5018883;28;1942;-53
2021/09/26 11:46:42;;;;;;;;;;;;;;;20.18;73.96;101136.63;5025221;28;1495;-55
2021/09/26 11:49:07;;;;;;;;;;;;;;;20.05;75.45;101130.78;5029364;28;1661;-52
2021/09/26 11:51:32;;;;;;;;;;;;;;;19.94;75.74;101136.38;5027317;28;1667;-55
2021/09/26 11:53:57;;;;;;;;;;;;;;;19.91;76.17;101131.28;5026003;28;1521;-52
2021/09/26 11:56:22;;;;;;;;;;;;;;;19.92;76.06;101122.16;5028052;28;1659;-53
2021/09/26 11:58:47;;;;;;;;;;;;;;;19.91;75.94;101123.16;5017736;28;861;-53
2021/09/26 12:01:12;;;;;;;;;;;;;;;19.95;77.44;101124.56;5017876;28;1965;-55
2021/09/26 12:03:37;;;;;;;;;;;;;;;19.96;77.42;101129.81;5018223;28;804;-56
2021/09/26 12:06:02;;;;;;;;;;;;;;;19.96;77.43;101124.41;5033366;28;2155;-56
2021/09/26 12:08:28;;;;;;;;;;;;;;;19.95;77.17;101121.84;5027134;28;1630;-52
2021/09/26 12:10:53;;;;;;;;;;;;;;;19.97;77.26;101117.16;5029455;28;1623;-51
2021/09/26 12:13:18;;;;;;;;;;;;;;;20.00;77.73;101125.81;5029122;28;1675;-54
2021/09/26 12:15:43;;;;;;;;;;;;;;;20.03;77.90;101119.25;5024974;28;1666;-53
2021/09/26 12:18:08;;;;;;;;;;;;;;;20.07;77.02;101118.75;5031353;28;1668;-52
2021/09/26 12:20:33;;;;;;;;;;;;;;;20.08;77.67;101119.63;5037166;28;1961;-53
2021/09/26 12:22:58;;;;;;;;;;;;;;;20.07;77.97;101121.47;5037266;28;1733;-54
2021/09/26 12:25:23;;;;;;;;;;;;;;;20.11;77.43;101111.19;5021591;28;1884;-55
2021/09/26 12:27:48;;;;;;;;;;;;;;;20.20;78.42;101114.84;5017476;28;1891;-51
2021/09/26 12:30:14;;;;;;;;;;;;;;;20.26;77.79;101115.06;5016304;28;1647;-51
2021/09/26 12:32:39;;;;;;;;;;;;;;;20.26;78.01;101125.88;5017301;28;883;-50
2021/09/26 12:35:04;;;;;;;;;;;;;;;20.25;78.03;101124.16;5017233;28;942;-53
2021/09/26 12:37:29;;;;;;;;;;;;;;;20.32;77.37;101119.00;5017249;28;982;-51
2021/09/26 12:39:54;;;;;;;;;;;;;;;20.43;76.52;101111.50;5016727;28;1894;-52